Coates, United Kingdom
Current Conditions -  °F | °C
As of 2:58 AM on Saturday 29 Nov 2014 (Local Time) from EGVA Reporting Station
Overcast Overcast  
Wind Chill: 46°   Ceiling: 13000
Heat Index: 49°   Visibility: 6mi
Dew Point: 49°   Wind: 8mph
Humidity: 99%   Direction: 70°ENE
Pressure: 29.72"   Gusts: NA
Location:  51.71°N, 2.03°W
Report Text: EGVA 290258Z AUTO 07007KT 9999 FEW005 OVC130 10/10 A2972 RMK AO2 SLP068 60000 T00960095 50008 $
Loading
Personal Weather Stations






























Interactive Weather Map New forecast layout! Learn more

10-Day Weather Forecast

Advertisements
Track Severe Weather on mobile